Time;durP1;ratioP1;P1;durP2;ratioP2;P2;SDS_P1;SDS_P2;PMS_P1;PMS_P2;Temp;Humidity;BMP_temperature;BMP_pressure;BME280_temperature;BME280_humidity;BME280_pressure;Samples;Min_cycle;Max_cycle;Signal;HPM_P1;HPM_P2
2021/10/29 00:00:03;;;;;;;12.40;9.40;;;10.50;99.90;;;;;;5015076;28;20543;-63
2021/10/29 00:02:30;;;;;;;17.87;11.03;;;10.40;99.90;;;;;;5015646;28;20428;-63
2021/10/29 00:04:58;;;;;;;11.17;9.50;;;10.40;99.90;;;;;;5014946;28;20820;-60
2021/10/29 00:07:25;;;;;;;13.97;9.80;;;10.30;99.90;;;;;;5037017;28;20507;-62
2021/10/29 00:09:53;;;;;;;11.13;8.90;;;10.30;99.90;;;;;;5034677;28;20572;-62
2021/10/29 00:12:21;;;;;;;9.83;7.70;;;10.30;99.90;;;;;;5032853;28;20511;-62
2021/10/29 00:14:49;;;;;;;11.17;9.70;;;10.20;99.90;;;;;;5014661;28;20496;-60
2021/10/29 00:17:17;;;;;;;10.43;8.73;;;10.30;99.90;;;;;;5015307;28;20417;-64
2021/10/29 00:19:44;;;;;;;12.00;9.90;;;10.20;99.90;;;;;;5014773;28;20479;-64
2021/10/29 00:22:11;;;;;;;10.60;8.30;;;10.20;99.90;;;;;;5015365;28;20429;-63
2021/10/29 00:24:39;;;;;;;13.83;9.80;;;10.20;99.90;;;;;;5014673;28;20469;-61
2021/10/29 00:27:06;;;;;;;13.30;9.63;;;10.10;99.90;;;;;;5014882;28;20432;-61
2021/10/29 00:29:33;;;;;;;13.03;8.83;;;10.20;99.90;;;;;;5014847;28;20475;-63
2021/10/29 00:32:00;;;;;;;13.43;10.20;;;10.10;99.90;;;;;;5020665;28;20430;-63
2021/10/29 00:34:27;;;;;;;12.27;9.53;;;10.10;99.90;;;;;;5049335;28;20824;-61
2021/10/29 00:36:54;;;;;;;11.30;10.10;;;10.10;99.90;;;;;;5014657;28;20937;-61
2021/10/29 00:39:21;;;;;;;14.03;10.10;;;10.10;99.90;;;;;;5014442;28;20522;-63
2021/10/29 00:41:48;;;;;;;15.73;11.50;;;10.10;99.90;;;;;;5014903;28;20512;-63
2021/10/29 00:44:22;;;;;;;13.37;9.37;;;10.10;99.90;;;;;;5014140;28;20572;-61
2021/10/29 00:46:50;;;;;;;13.30;11.03;;;10.10;99.90;;;;;;5029718;28;20437;-62
2021/10/29 00:49:18;;;;;;;11.40;9.20;;;10.00;99.90;;;;;;5014325;28;20560;-63
2021/10/29 00:51:45;;;;;;;10.80;9.00;;;10.00;99.90;;;;;;5014381;28;20443;-63
2021/10/29 00:54:15;;;;;;;14.37;10.43;;;10.00;99.90;;;;;;5014148;28;20464;-62
2021/10/29 00:56:43;;;;;;;12.03;9.97;;;10.00;99.90;;;;;;5014480;28;20857;-62
2021/10/29 00:59:10;;;;;;;12.30;9.33;;;10.00;99.90;;;;;;5028958;28;20476;-63
2021/10/29 01:01:37;;;;;;;11.10;9.63;;;10.00;99.90;;;;;;5014403;28;20949;-63
2021/10/29 01:04:05;;;;;;;12.83;10.27;;;10.00;99.90;;;;;;5013877;28;20468;-61
2021/10/29 01:06:33;;;;;;;10.90;9.10;;;10.00;99.90;;;;;;5029734;28;20480;-61
2021/10/29 01:08:59;;;;;;;9.30;8.40;;;10.00;99.90;;;;;;5013680;28;20469;-63
2021/10/29 01:11:27;;;;;;;11.73;8.73;;;10.00;99.90;;;;;;5023575;28;20961;-63
2021/10/29 01:13:54;;;;;;;12.90;9.70;;;10.00;99.90;;;;;;5033174;28;20479;-63
2021/10/29 01:16:22;;;;;;;11.93;9.77;;;10.00;99.90;;;;;;5033792;28;20851;-61
2021/10/29 01:18:49;;;;;;;9.50;8.43;;;9.90;99.90;;;;;;5033595;28;20866;-64
2021/10/29 01:21:17;;;;;;;13.80;11.13;;;9.90;99.90;;;;;;5031624;28;20443;-63
2021/10/29 01:23:44;;;;;;;11.30;9.60;;;9.90;99.90;;;;;;5033269;28;20833;-61
2021/10/29 01:26:14;;;;;;;17.43;9.80;;;9.80;99.90;;;;;;5033486;28;20436;-62
2021/10/29 01:28:41;;;;;;;11.73;10.50;;;9.90;99.90;;;;;;5020478;28;20484;-64
2021/10/29 01:31:09;;;;;;;14.33;9.93;;;9.90;99.90;;;;;;5013743;28;20431;-63
2021/10/29 01:33:36;;;;;;;13.17;9.33;;;9.80;99.90;;;;;;5045031;28;20451;-62
2021/10/29 01:36:05;;;;;;;14.33;9.80;;;9.90;99.90;;;;;;5022376;28;20448;-61
2021/10/29 01:38:41;;;;;;;12.27;8.90;;;9.90;99.90;;;;;;5013531;28;20459;-65
2021/10/29 01:41:10;;;;;;;14.10;9.97;;;9.80;99.90;;;;;;5015575;28;20432;-64
2021/10/29 01:43:40;;;;;;;13.80;9.87;;;9.70;99.90;;;;;;5013591;28;20453;-64
2021/10/29 01:46:08;;;;;;;10.90;9.70;;;9.70;99.90;;;;;;5013454;28;20423;-61
2021/10/29 01:48:49;;;;;;;10.70;9.27;;;9.70;99.90;;;;;;5013075;28;20485;-62
2021/10/29 01:51:16;;;;;;;11.83;9.53;;;9.60;99.90;;;;;;5013862;28;20453;-64
2021/10/29 01:53:44;;;;;;;13.47;8.97;;;9.60;99.90;;;;;;5012845;28;21041;-63
2021/10/29 01:56:11;;;;;;;11.87;9.03;;;9.60;99.90;;;;;;5013547;28;20416;-61
2021/10/29 01:58:38;;;;;;;12.50;9.20;;;9.60;99.90;;;;;;5028128;28;20454;-63
2021/10/29 02:01:05;;;;;;;13.13;9.60;;;9.70;99.90;;;;;;5013428;28;20501;-63
2021/10/29 02:03:36;;;;;;;10.87;9.13;;;9.70;99.90;;;;;;5012171;28;20540;-64
2021/10/29 02:06:04;;;;;;;15.40;10.77;;;9.70;99.90;;;;;;5025037;28;20531;-62
2021/10/29 02:08:31;;;;;;;12.87;11.50;;;9.80;99.90;;;;;;5032255;28;20471;-64
2021/10/29 02:10:58;;;;;;;11.27;9.57;;;9.90;99.90;;;;;;5033085;28;20464;-63
2021/10/29 02:13:26;;;;;;;9.60;8.60;;;10.00;99.90;;;;;;5032212;28;20467;-63
2021/10/29 02:15:53;;;;;;;13.53;9.60;;;10.10;99.90;;;;;;5017011;28;20814;-62
2021/10/29 02:18:20;;;;;;;12.30;9.10;;;10.10;99.90;;;;;;5012378;28;20424;-63
2021/10/29 02:20:47;;;;;;;10.27;9.17;;;10.10;99.90;;;;;;5012593;28;20784;-64
2021/10/29 02:23:15;;;;;;;12.20;8.60;;;10.20;99.90;;;;;;5012587;28;20918;-63
2021/10/29 02:25:46;;;;;;;15.97;11.37;;;10.20;99.90;;;;;;5012791;28;20449;-62
2021/10/29 02:28:14;;;;;;;12.10;10.87;;;10.20;99.90;;;;;;5012284;28;20421;-62
2021/10/29 02:30:42;;;;;;;13.37;9.60;;;10.20;99.90;;;;;;5027557;28;20473;-65
2021/10/29 02:33:10;;;;;;;9.87;8.50;;;10.20;99.90;;;;;;5036503;28;20959;-63
2021/10/29 02:35:36;;;;;;;14.47;9.87;;;10.20;99.90;;;;;;5028854;28;20461;-62
2021/10/29 02:38:04;;;;;;;12.27;11.00;;;10.20;99.90;;;;;;5011776;28;20429;-64
2021/10/29 02:40:30;;;;;;;12.43;9.63;;;10.20;99.90;;;;;;5027962;28;20800;-63
2021/10/29 02:42:57;;;;;;;9.20;8.30;;;10.20;99.90;;;;;;5012481;28;20425;-63
2021/10/29 02:45:24;;;;;;;15.03;8.77;;;10.20;99.90;;;;;;5011936;28;20477;-61
2021/10/29 02:47:51;;;;;;;9.50;7.60;;;10.20;99.90;;;;;;5012007;28;20431;-61
2021/10/29 02:50:21;;;;;;;10.17;8.50;;;10.20;99.90;;;;;;5027314;28;21061;-63
2021/10/29 02:52:48;;;;;;;10.37;7.23;;;10.20;99.90;;;;;;5012680;28;20818;-63
2021/10/29 02:55:16;;;;;;;10.40;8.60;;;10.20;99.90;;;;;;5011982;28;20457;-61
2021/10/29 02:57:43;;;;;;;13.70;8.63;;;10.20;99.90;;;;;;5012015;28;20428;-62
2021/10/29 03:00:15;;;;;;;9.17;8.27;;;10.20;99.90;;;;;;5011713;28;20499;-63
2021/10/29 03:02:43;;;;;;;9.33;8.37;;;10.30;99.90;;;;;;5016568;28;20824;-62
2021/10/29 03:05:12;;;;;;;10.47;8.47;;;10.20;99.90;;;;;;5025869;28;20989;-61
2021/10/29 03:07:39;;;;;;;9.73;8.73;;;10.30;99.90;;;;;;5031793;28;20423;-60
2021/10/29 03:10:08;;;;;;;10.93;9.43;;;10.30;99.90;;;;;;5031244;28;20497;-63
2021/10/29 03:12:35;;;;;;;11.10;8.23;;;10.30;99.90;;;;;;5024617;28;20429;-63
2021/10/29 03:15:04;;;;;;;9.77;7.93;;;10.30;99.90;;;;;;5016143;28;20469;-61
2021/10/29 03:17:31;;;;;;;8.13;7.33;;;10.30;99.90;;;;;;5012574;28;20417;-61
2021/10/29 03:19:58;;;;;;;11.00;8.00;;;10.40;99.90;;;;;;5011421;28;20483;-63
2021/10/29 03:22:25;;;;;;;9.40;7.43;;;10.30;99.90;;;;;;5012134;28;20548;-64
2021/10/29 03:24:52;;;;;;;8.97;7.30;;;10.40;99.90;;;;;;5011659;28;20479;-62
2021/10/29 03:27:19;;;;;;;10.87;7.40;;;10.30;99.90;;;;;;5026723;28;20944;-61
2021/10/29 03:29:46;;;;;;;12.00;7.43;;;10.30;99.90;;;;;;5026691;28;20477;-64
2021/10/29 03:32:13;;;;;;;11.50;8.93;;;10.30;99.90;;;;;;5021101;28;20433;-63
2021/10/29 03:34:40;;;;;;;11.77;9.30;;;10.30;99.90;;;;;;5042856;28;20477;-64
2021/10/29 03:37:21;;;;;;;12.03;10.53;;;10.20;99.90;;;;;;5011664;28;20417;-59
2021/10/29 03:39:56;;;;;;;11.33;9.93;;;10.20;99.90;;;;;;5011428;28;20544;-64
2021/10/29 03:42:26;;;;;;;11.40;9.63;;;10.20;99.90;;;;;;5027032;28;20428;-63
2021/10/29 03:45:01;;;;;;;10.50;8.30;;;10.20;99.90;;;;;;5011492;28;20553;-62
2021/10/29 03:47:30;;;;;;;11.40;7.20;;;10.20;99.90;;;;;;5011570;28;20524;-61
2021/10/29 03:50:17;;;;;;;8.90;7.50;;;10.10;99.90;;;;;;5011263;28;20975;-62
2021/10/29 03:52:55;;;;;;;11.10;7.50;;;10.10;99.90;;;;;;5011702;28;20951;-63
2021/10/29 03:55:25;;;;;;;13.07;8.63;;;10.10;99.90;;;;;;5011297;28;20470;-62
2021/10/29 03:57:52;;;;;;;11.20;7.50;;;10.10;99.90;;;;;;5012018;28;20763;-62
2021/10/29 04:00:19;;;;;;;9.70;8.63;;;10.00;99.90;;;;;;5011298;28;20476;-63
2021/10/29 04:02:46;;;;;;;13.37;8.83;;;10.00;99.90;;;;;;5011461;28;20429;-63
2021/10/29 04:05:13;;;;;;;9.90;8.43;;;10.00;99.90;;;;;;5011109;28;20998;-62
2021/10/29 04:07:40;;;;;;;11.20;8.00;;;9.90;99.90;;;;;;5011539;28;20425;-62
2021/10/29 04:10:07;;;;;;;11.23;8.83;;;9.90;99.90;;;;;;5026133;28;20483;-63
2021/10/29 04:12:34;;;;;;;9.73;8.73;;;9.80;99.90;;;;;;5011727;28;20409;-63
2021/10/29 04:15:01;;;;;;;10.93;8.40;;;9.80;99.90;;;;;;5028751;28;20902;-64
2021/10/29 04:17:28;;;;;;;10.20;8.13;;;9.80;99.90;;;;;;5031100;28;20917;-61
2021/10/29 04:19:55;;;;;;;10.60;7.80;;;9.70;99.90;;;;;;5024513;28;20477;-63
2021/10/29 04:22:22;;;;;;;9.53;8.00;;;9.70;99.90;;;;;;5011563;28;20421;-63
2021/10/29 04:24:49;;;;;;;13.00;9.40;;;9.60;99.90;;;;;;5010843;28;20473;-63
2021/10/29 04:27:21;;;;;;;8.87;7.53;;;9.40;99.90;;;;;;5012256;28;20475;-61
2021/10/29 04:29:50;;;;;;;11.77;8.53;;;9.30;99.90;;;;;;5014392;28;20534;-63
2021/10/29 04:32:17;;;;;;;10.40;8.20;;;9.20;99.90;;;;;;5030201;28;20421;-62
2021/10/29 04:34:44;;;;;;;10.20;8.00;;;9.10;99.90;;;;;;5014718;28;20849;-62
2021/10/29 04:37:11;;;;;;;10.60;8.93;;;9.10;99.90;;;;;;5014735;28;20429;-61
2021/10/29 04:39:39;;;;;;;11.70;8.33;;;9.10;99.90;;;;;;5014400;28;20822;-64
2021/10/29 04:42:05;;;;;;;9.60;8.30;;;8.90;99.90;;;;;;5014726;28;20787;-63
2021/10/29 04:44:32;;;;;;;7.93;6.87;;;8.90;99.90;;;;;;5028014;23;20515;-59
2021/10/29 04:46:59;;;;;;;11.27;8.43;;;8.90;99.90;;;;;;5034336;28;20420;-59
2021/10/29 04:49:26;;;;;;;11.20;9.10;;;8.90;99.90;;;;;;5031317;28;20559;-59
2021/10/29 04:51:53;;;;;;;11.23;8.40;;;8.90;99.90;;;;;;5014598;28;20417;-59
2021/10/29 04:54:20;;;;;;;13.13;9.10;;;8.90;99.90;;;;;;5014143;28;20471;-58
2021/10/29 04:56:48;;;;;;;12.13;8.67;;;9.00;99.90;;;;;;5014458;28;20431;-59
2021/10/29 04:59:16;;;;;;;11.53;8.53;;;9.10;99.90;;;;;;5013847;28;21018;-58
2021/10/29 05:01:45;;;;;;;11.93;9.13;;;9.20;99.90;;;;;;5014435;28;20797;-58
2021/10/29 05:04:18;;;;;;;10.33;8.40;;;9.20;99.90;;;;;;5013467;28;20986;-59
2021/10/29 05:06:45;;;;;;;11.67;9.20;;;9.20;99.90;;;;;;5014317;28;20512;-59
2021/10/29 05:09:12;;;;;;;12.93;9.90;;;9.30;99.90;;;;;;5013866;28;20456;-59
2021/10/29 05:11:39;;;;;;;10.40;8.20;;;9.30;99.90;;;;;;5014111;28;20460;-59
2021/10/29 05:14:06;;;;;;;14.33;10.90;;;9.30;99.90;;;;;;4999448;28;21012;-59
2021/10/29 05:16:33;;;;;;;11.00;9.40;;;9.30;99.90;;;;;;5020407;28;20479;-58
2021/10/29 05:19:00;;;;;;;11.83;9.40;;;9.30;99.90;;;;;;5022507;28;20990;-59
2021/10/29 05:21:27;;;;;;;11.77;8.60;;;9.30;99.90;;;;;;5014262;28;20453;-59
2021/10/29 05:23:53;;;;;;;10.83;8.20;;;9.40;99.90;;;;;;5013588;28;20475;-59
2021/10/29 05:26:20;;;;;;;9.37;7.50;;;9.50;99.90;;;;;;5013625;28;20439;-58
2021/10/29 05:28:48;;;;;;;14.50;8.90;;;9.70;99.90;;;;;;5013512;28;20982;-59
2021/10/29 05:31:15;;;;;;;8.57;7.13;;;9.80;99.90;;;;;;5013746;28;20465;-58
2021/10/29 05:33:42;;;;;;;11.13;7.30;;;9.80;99.90;;;;;;5046716;28;20504;-59
2021/10/29 05:36:09;;;;;;;9.87;8.00;;;9.90;99.90;;;;;;5020761;28;20445;-59
2021/10/29 05:38:36;;;;;;;15.17;9.60;;;10.00;99.90;;;;;;5012378;28;20445;-59
2021/10/29 05:41:02;;;;;;;10.13;7.70;;;10.00;99.90;;;;;;5013616;28;20867;-59
2021/10/29 05:43:29;;;;;;;15.53;8.40;;;10.00;99.90;;;;;;5013208;28;20469;-59
2021/10/29 05:45:56;;;;;;;12.30;8.50;;;10.00;99.90;;;;;;5013765;28;20472;-59
2021/10/29 05:48:24;;;;;;;11.87;7.90;;;10.00;99.90;;;;;;5012819;28;20448;-59
2021/10/29 05:50:52;;;;;;;10.10;7.60;;;10.00;99.90;;;;;;5013590;28;20476;-58
2021/10/29 05:55:56;;;;;;;8.83;7.90;;;10.00;99.90;;;;;;5013693;28;20439;-59
2021/10/29 05:58:23;;;;;;;10.03;7.70;;;10.00;99.90;;;;;;5013140;28;20455;-59
2021/10/29 06:00:55;;;;;;;11.77;8.20;;;10.10;99.90;;;;;;5013665;28;20854;-59
2021/10/29 06:03:23;;;;;;;10.97;7.73;;;10.10;99.90;;;;;;5012727;28;20515;-59
2021/10/29 06:05:50;;;;;;;12.73;7.67;;;10.10;99.90;;;;;;5013173;28;20467;-58
2021/10/29 06:08:18;;;;;;;13.40;8.00;;;10.10;99.90;;;;;;5012481;28;20426;-59
2021/10/29 06:10:44;;;;;;;9.57;7.23;;;10.00;99.90;;;;;;5015620;28;20873;-58
2021/10/29 06:13:11;;;;;;;18.70;7.90;;;10.00;99.90;;;;;;5035218;28;20451;-59
2021/10/29 06:15:42;;;;;;;9.27;7.57;;;10.00;99.90;;;;;;5013001;28;20432;-58
2021/10/29 06:18:09;;;;;;;8.70;7.20;;;10.00;99.90;;;;;;5012490;28;20417;-59
2021/10/29 06:20:36;;;;;;;10.57;7.80;;;9.90;99.90;;;;;;5013103;28;20441;-58
2021/10/29 06:23:07;;;;;;;9.50;7.77;;;9.90;99.90;;;;;;5012591;28;20937;-60
2021/10/29 06:25:42;;;;;;;14.67;7.97;;;9.90;99.90;;;;;;5012796;28;20449;-59
2021/10/29 06:30:39;;;;;;;13.37;7.83;;;9.80;99.90;;;;;;5012754;28;20996;-59
2021/10/29 06:33:07;;;;;;;11.13;8.60;;;9.70;99.90;;;;;;5028979;28;20519;-59
2021/10/29 06:35:34;;;;;;;13.10;8.80;;;9.70;99.90;;;;;;5021135;28;20464;-59
2021/10/29 06:38:02;;;;;;;12.20;7.90;;;9.70;99.90;;;;;;5012839;28;20457;-59
2021/10/29 06:40:31;;;;;;;11.30;8.50;;;9.70;99.90;;;;;;5011715;28;20457;-59
2021/10/29 06:43:04;;;;;;;8.17;6.97;;;9.70;99.90;;;;;;5043140;28;20443;-59
2021/10/29 06:48:21;;;;;;;8.90;8.00;;;9.60;99.90;;;;;;5030536;28;20452;-59
2021/10/29 06:59:17;;;;;;;10.83;8.77;;;9.50;99.90;;;;;;5020597;28;20494;-59
2021/10/29 07:40:15;;;;;;;13.83;9.67;;;9.90;99.90;;;;;;5011330;28;20474;-59
2021/10/29 07:43:04;;;;;;;10.47;8.60;;;10.00;99.90;;;;;;4994379;28;20818;-59
2021/10/29 07:45:32;;;;;;;12.40;8.77;;;10.00;99.90;;;;;;5026509;28;21078;-59
2021/10/29 07:48:00;;;;;;;11.10;8.57;;;10.10;99.90;;;;;;5051119;28;20474;-58
2021/10/29 07:50:27;;;;;;;12.40;9.30;;;10.10;99.90;;;;;;5030026;28;20556;-59
2021/10/29 07:52:57;;;;;;;12.43;9.23;;;10.10;99.90;;;;;;5010708;28;20417;-58
2021/10/29 07:55:27;;;;;;;12.30;8.90;;;10.10;99.90;;;;;;5011175;28;20464;-59
2021/10/29 07:58:00;;;;;;;10.50;9.10;;;10.00;99.90;;;;;;5011629;28;20991;-58
2021/10/29 08:00:27;;;;;;;13.07;8.97;;;10.10;99.90;;;;;;4993621;28;20507;-58
2021/10/29 08:02:55;;;;;;;11.57;8.53;;;10.10;99.90;;;;;;5014060;28;20771;-58
2021/10/29 08:05:22;;;;;;;12.47;8.77;;;10.10;99.90;;;;;;5023078;28;21080;-58
2021/10/29 08:07:49;;;;;;;10.77;8.47;;;10.10;99.90;;;;;;5015314;28;20413;-59
2021/10/29 08:10:17;;;;;;;16.33;10.17;;;10.10;99.90;;;;;;5014950;28;20456;-59
2021/10/29 08:12:44;;;;;;;13.43;9.23;;;10.10;99.90;;;;;;5015484;28;20443;-59
2021/10/29 08:15:11;;;;;;;12.40;9.93;;;10.10;99.90;;;;;;5014778;28;20461;-58
2021/10/29 08:17:40;;;;;;;13.30;10.17;;;10.20;99.90;;;;;;5042173;28;20526;-59
2021/10/29 08:20:10;;;;;;;9.93;8.93;;;10.30;99.90;;;;;;5035126;28;20569;-58
2021/10/29 08:22:38;;;;;;;12.00;9.30;;;10.30;99.90;;;;;;5050006;28;20445;-59
2021/10/29 08:25:07;;;;;;;14.47;9.77;;;10.40;99.90;;;;;;5054986;28;20467;-58
2021/10/29 08:27:35;;;;;;;13.17;9.93;;;10.40;99.90;;;;;;5060078;28;20432;-59
2021/10/29 08:30:04;;;;;;;13.40;8.50;;;10.50;99.90;;;;;;5042803;28;20489;-58
2021/10/29 08:32:31;;;;;;;11.40;9.50;;;10.50;99.90;;;;;;5054787;28;20467;-59
2021/10/29 08:34:58;;;;;;;14.17;9.77;;;10.60;99.90;;;;;;5041720;28;20515;-58
2021/10/29 08:37:28;;;;;;;14.23;8.60;;;10.60;99.90;;;;;;5014890;28;20428;-58
2021/10/29 08:39:56;;;;;;;12.50;9.73;;;10.70;99.90;;;;;;5041683;28;20458;-58
2021/10/29 08:42:23;;;;;;;12.90;9.93;;;10.80;99.90;;;;;;5040882;28;20458;-58
2021/10/29 08:44:51;;;;;;;11.13;8.97;;;10.90;99.90;;;;;;5040235;28;20478;-58
2021/10/29 08:47:23;;;;;;;12.27;10.03;;;10.90;99.90;;;;;;5034725;28;20424;-58
2021/10/29 08:49:52;;;;;;;10.30;8.93;;;11.00;99.90;;;;;;5032592;28;20572;-58
2021/10/29 08:52:21;;;;;;;10.87;8.60;;;11.20;99.90;;;;;;5014767;28;20818;-58
2021/10/29 08:54:50;;;;;;;11.97;9.80;;;11.30;99.90;;;;;;5014119;28;20470;-58
2021/10/29 08:57:17;;;;;;;8.80;7.80;;;11.40;99.90;;;;;;5054313;28;20866;-58
2021/10/29 08:59:51;;;;;;;13.80;9.10;;;11.60;99.90;;;;;;5018730;28;20459;-58
2021/10/29 09:04:57;;;;;;;8.07;7.27;;;11.70;99.90;;;;;;5043005;28;20625;-58
2021/10/29 09:07:50;;;;;;;10.30;7.00;;;11.80;99.90;;;;;;5014486;28;20438;-58
2021/10/29 09:16:35;;;;;;;7.87;6.50;;;12.10;99.90;;;;;;5013839;28;20921;-58
2021/10/29 09:32:59;;;;;;;7.37;6.23;;;12.80;99.90;;;;;;5015942;28;20555;-58
2021/10/29 09:35:29;;;;;;;7.27;5.93;;;13.00;99.90;;;;;;5031942;28;20576;-58
2021/10/29 09:38:05;;;;;;;7.67;6.50;;;13.20;99.90;;;;;;5022424;28;20481;-58
2021/10/29 09:40:59;;;;;;;7.10;6.40;;;13.30;99.90;;;;;;5053626;28;20470;-58
2021/10/29 09:43:36;;;;;;;5.13;4.00;;;13.50;99.90;;;;;;5038444;28;20528;-58
2021/10/29 09:46:07;;;;;;;5.57;5.07;;;13.70;99.90;;;;;;5013522;28;20457;-58
2021/10/29 09:48:43;;;;;;;6.83;4.80;;;13.80;99.90;;;;;;5013027;28;20456;-58
2021/10/29 09:51:13;;;;;;;5.57;4.00;;;14.00;99.90;;;;;;5013831;28;20476;-58
2021/10/29 09:53:49;;;;;;;5.13;3.80;;;14.30;99.90;;;;;;5012921;28;20533;-58
2021/10/29 09:58:52;;;;;;;6.47;4.67;;;14.60;99.90;;;;;;5051451;28;20455;-58
2021/10/29 10:01:23;;;;;;;7.70;4.33;;;14.80;99.90;;;;;;5022271;28;20432;-58
2021/10/29 10:03:51;;;;;;;4.00;3.30;;;14.90;99.90;;;;;;5039554;28;20518;-59
2021/10/29 10:06:23;;;;;;;6.73;5.50;;;15.20;99.90;;;;;;5042807;28;20459;-58
2021/10/29 10:08:52;;;;;;;4.93;4.53;;;15.30;99.90;;;;;;5035780;28;20545;-58
2021/10/29 10:11:21;;;;;;;5.40;3.67;;;15.30;99.90;;;;;;5053026;28;21071;-58
2021/10/29 10:13:48;;;;;;;4.83;4.10;;;15.40;99.90;;;;;;5052004;28;20538;-58
2021/10/29 10:16:16;;;;;;;5.57;3.10;;;15.50;99.90;;;;;;5015076;28;20447;-58
2021/10/29 10:18:44;;;;;;;6.50;3.30;;;15.70;99.90;;;;;;5012569;28;20453;-58
2021/10/29 10:21:17;;;;;;;4.77;3.80;;;15.70;99.90;;;;;;4995487;28;20441;-58
2021/10/29 10:23:47;;;;;;;3.13;2.83;;;15.70;99.90;;;;;;5012450;28;20995;-58
2021/10/29 10:46:04;;;;;;;3.30;2.47;;;16.70;94.20;;;;;;5012245;28;20473;-58
2021/10/29 10:48:36;;;;;;;3.63;2.80;;;16.70;94.10;;;;;;5012021;28;20461;-59
2021/10/29 10:51:26;;;;;;;6.27;2.60;;;16.80;94.10;;;;;;4995146;28;20548;-58
2021/10/29 10:54:20;;;;;;;4.97;3.10;;;16.90;93.40;;;;;;5012051;28;20467;-58
2021/10/29 10:59:34;;;;;;;4.47;2.90;;;17.00;91.60;;;;;;5012031;28;20831;-58
2021/10/29 11:10:20;;;;;;;4.60;3.07;;;17.50;90.70;;;;;;5031748;28;20461;-58
2021/10/29 11:12:47;;;;;;;3.57;2.70;;;17.60;90.60;;;;;;5032054;28;20493;-58
2021/10/29 11:15:18;;;;;;;4.40;2.10;;;17.70;90.30;;;;;;5027187;28;20486;-58
2021/10/29 11:18:21;;;;;;;2.70;2.50;;;17.80;88.20;;;;;;5011986;28;20510;-58
2021/10/29 11:20:50;;;;;;;5.97;3.60;;;17.70;89.10;;;;;;5012270;28;20522;-58
2021/10/29 11:23:22;;;;;;;2.73;2.53;;;17.90;86.50;;;;;;5019797;28;20875;-58
2021/10/29 11:25:52;;;;;;;3.93;2.90;;;18.00;87.20;;;;;;5012825;28;20470;-58
2021/10/29 11:28:24;;;;;;;3.17;2.40;;;18.20;85.30;;;;;;5033632;28;20431;-58
2021/10/29 11:30:54;;;;;;;8.53;7.00;;;17.90;84.40;;;;;;5040188;28;20452;-58
2021/10/29 11:33:22;;;;;;;6.47;4.37;;;17.90;84.70;;;;;;5021147;28;20603;-57
2021/10/29 11:36:03;;;;;;;6.87;6.17;;;17.90;84.60;;;;;;5014984;28;20566;-57
2021/10/29 11:38:33;;;;;;;5.23;3.40;;;17.90;83.90;;;;;;5032845;28;20549;-58
2021/10/29 11:41:02;;;;;;;5.90;4.40;;;17.80;83.60;;;;;;5035167;28;20989;-57
2021/10/29 11:43:32;;;;;;;5.63;4.00;;;17.90;84.00;;;;;;5032562;28;20458;-58
2021/10/29 11:46:06;;;;;;;4.57;3.20;;;17.90;83.10;;;;;;5037702;28;20547;-58
2021/10/29 11:48:56;;;;;;;5.50;3.60;;;18.00;81.80;;;;;;5017427;28;20466;-57
2021/10/29 11:51:24;;;;;;;6.90;5.40;;;17.90;82.80;;;;;;5017901;28;20464;-58
2021/10/29 11:54:22;;;;;;;3.60;3.13;;;18.00;82.60;;;;;;5033578;28;20980;-58
2021/10/29 12:07:34;;;;;;;5.97;3.13;;;18.10;80.00;;;;;;5022850;28;20447;-58
2021/10/29 12:10:05;;;;;;;3.97;2.50;;;18.20;81.40;;;;;;5035072;28;20492;-58
2021/10/29 12:12:34;;;;;;;5.57;5.07;;;18.10;81.10;;;;;;5016759;28;20553;-58
2021/10/29 12:15:08;;;;;;;5.40;3.07;;;18.20;82.10;;;;;;5029202;28;21001;-58
2021/10/29 12:17:59;;;;;;;9.47;7.47;;;18.20;80.10;;;;;;5015315;28;20421;-58
2021/10/29 12:20:32;;;;;;;10.30;3.70;;;18.30;80.30;;;;;;5021429;28;20508;-58
2021/10/29 12:23:06;;;;;;;3.77;2.63;;;18.40;79.60;;;;;;5035236;28;20437;-58
2021/10/29 12:28:38;;;;;;;3.33;2.53;;;18.30;79.90;;;;;;5034186;28;20434;-58
2021/10/29 12:31:32;;;;;;;4.47;4.10;;;18.50;77.50;;;;;;5028334;28;20445;-58
2021/10/29 12:47:38;;;;;;;4.07;2.80;;;18.90;76.50;;;;;;5031742;28;20468;-58
2021/10/29 12:59:16;;;;;;;3.10;2.67;;;18.60;76.80;;;;;;5007329;28;20540;-58
2021/10/29 13:01:58;;;;;;;2.83;2.50;;;18.60;77.30;;;;;;5024623;28;20466;-58
2021/10/29 13:04:42;;;;;;;5.37;3.40;;;18.50;76.40;;;;;;5031614;28;20476;-58
2021/10/29 13:07:09;;;;;;;4.70;2.67;;;18.50;76.30;;;;;;5013626;28;20452;-58
2021/10/29 13:09:38;;;;;;;3.27;2.60;;;18.40;77.60;;;;;;5013829;28;20539;-58
2021/10/29 13:15:03;;;;;;;6.00;3.00;;;18.30;76.80;;;;;;5013706;28;20550;-58
2021/10/29 13:17:37;;;;;;;5.97;3.03;;;18.20;77.70;;;;;;5013598;28;20447;-58
2021/10/29 13:36:24;;;;;;;3.37;2.60;;;17.90;79.40;;;;;;5033852;28;20449;-58
2021/10/29 13:50:36;;;;;;;5.53;3.43;;;17.90;80.00;;;;;;5012759;28;20479;-58
2021/10/29 13:53:22;;;;;;;3.47;2.93;;;18.00;80.50;;;;;;5052763;28;20483;-58
2021/10/29 14:28:46;;;;;;;5.83;2.80;;;17.50;81.60;;;;;;5030706;28;20540;-58
2021/10/29 14:31:19;;;;;;;4.10;2.90;;;17.50;82.90;;;;;;5032589;28;20425;-58
2021/10/29 14:34:02;;;;;;;4.20;2.73;;;17.50;82.60;;;;;;5044642;28;20564;-58
2021/10/29 14:36:41;;;;;;;4.23;3.70;;;17.40;83.40;;;;;;5012734;28;20442;-59
2021/10/29 14:39:16;;;;;;;3.60;2.83;;;17.50;84.50;;;;;;5026048;28;20508;-58
2021/10/29 14:41:54;;;;;;;3.40;2.50;;;17.50;84.20;;;;;;5031320;28;20442;-58
2021/10/29 14:44:27;;;;;;;4.27;3.00;;;17.50;83.10;;;;;;5015849;28;20488;-58
2021/10/29 14:47:19;;;;;;;4.80;2.77;;;17.40;83.50;;;;;;5031750;28;20516;-58
2021/10/29 15:16:51;;;;;;;5.00;3.50;;;17.00;85.40;;;;;;5012350;28;20426;-58
2021/10/29 15:27:33;;;;;;;4.97;3.60;;;16.70;89.90;;;;;;5011825;28;20424;-58
2021/10/29 15:46:15;;;;;;;4.40;2.93;;;16.20;90.80;;;;;;5011748;28;20437;-58
2021/10/29 15:48:50;;;;;;;5.70;3.57;;;16.30;90.40;;;;;;5019019;28;20456;-58
2021/10/29 15:51:17;;;;;;;3.63;3.30;;;16.30;90.70;;;;;;5018190;28;20441;-58
2021/10/29 15:53:45;;;;;;;3.70;3.40;;;16.20;91.10;;;;;;5011861;28;20499;-58
2021/10/29 15:56:21;;;;;;;6.47;3.67;;;16.10;91.30;;;;;;5011664;28;20425;-58
2021/10/29 16:01:46;;;;;;;6.27;3.20;;;16.00;91.70;;;;;;5011898;28;20435;-58
2021/10/29 16:18:00;;;;;;;4.83;3.53;;;15.70;92.30;;;;;;5011997;28;20436;-58
2021/10/29 16:20:27;;;;;;;9.00;3.50;;;15.70;92.30;;;;;;5011049;28;20475;-58
2021/10/29 16:22:57;;;;;;;5.33;2.97;;;15.70;92.50;;;;;;5012319;28;20429;-58
2021/10/29 16:26:01;;;;;;;5.37;3.17;;;15.60;92.60;;;;;;5014705;28;20544;-58
2021/10/29 16:28:20;;;;;;;7.30;3.70;;;15.60;92.60;;;;;;5020480;28;20459;-58
2021/10/29 16:30:47;;;;;;;5.10;3.40;;;15.60;92.80;;;;;;5033311;28;20428;-58
2021/10/29 16:33:56;;;;;;;4.53;3.40;;;15.50;92.80;;;;;;5037645;28;20981;-58
2021/10/29 16:36:05;;;;;;;4.03;3.57;;;15.60;93.00;;;;;;5042405;28;20455;-58
2021/10/29 16:38:33;;;;;;;6.53;3.60;;;15.60;93.50;;;;;;5035485;28;20448;-58
2021/10/29 16:41:00;;;;;;;4.07;3.57;;;15.60;92.90;;;;;;5034626;28;20416;-58
2021/10/29 16:43:27;;;;;;;5.43;3.43;;;15.60;93.10;;;;;;5033069;28;20448;-58
2021/10/29 16:45:54;;;;;;;5.13;3.10;;;15.50;93.10;;;;;;5032219;28;20447;-58
2021/10/29 16:48:24;;;;;;;3.90;2.83;;;15.40;93.50;;;;;;5015891;28;20436;-58
2021/10/29 16:50:52;;;;;;;4.47;3.17;;;15.50;93.10;;;;;;5021205;28;20441;-58
2021/10/29 16:53:19;;;;;;;6.93;3.30;;;15.60;93.20;;;;;;5018165;28;20818;-58
2021/10/29 16:55:46;;;;;;;4.17;2.63;;;15.50;93.40;;;;;;5033266;28;20470;-58
2021/10/29 16:58:15;;;;;;;4.23;2.90;;;15.40;93.80;;;;;;5040267;28;20447;-58
2021/10/29 17:00:45;;;;;;;4.10;3.27;;;15.40;94.30;;;;;;5047205;28;20432;-58
2021/10/29 17:03:14;;;;;;;4.33;3.27;;;15.30;94.40;;;;;;5033868;28;20428;-58
2021/10/29 17:05:41;;;;;;;5.70;3.40;;;15.30;94.20;;;;;;5022427;28;20476;-58
2021/10/29 17:08:08;;;;;;;4.70;3.87;;;15.30;94.30;;;;;;5014420;28;20421;-58
2021/10/29 17:10:35;;;;;;;7.53;3.43;;;15.30;94.10;;;;;;5015798;28;20428;-58
2021/10/29 17:13:03;;;;;;;6.00;4.00;;;15.30;94.00;;;;;;5043797;28;20468;-58
2021/10/29 17:15:32;;;;;;;5.93;3.30;;;15.30;94.50;;;;;;5013813;28;20449;-58
2021/10/29 17:18:04;;;;;;;4.93;4.43;;;15.20;94.80;;;;;;5043439;28;20456;-58
2021/10/29 17:20:32;;;;;;;5.90;4.93;;;15.10;95.20;;;;;;5030402;28;20542;-58
2021/10/29 17:22:59;;;;;;;6.77;4.13;;;15.10;95.20;;;;;;5034050;28;20448;-58
2021/10/29 17:25:27;;;;;;;7.10;4.00;;;15.10;95.40;;;;;;5032119;28;20483;-58
2021/10/29 17:27:54;;;;;;;6.67;4.03;;;15.10;95.30;;;;;;5033116;28;20515;-58
2021/10/29 17:30:21;;;;;;;6.87;3.57;;;15.00;96.00;;;;;;5040341;28;21022;-58
2021/10/29 17:32:49;;;;;;;5.10;3.80;;;14.90;96.50;;;;;;5051690;28;20431;-58
2021/10/29 17:35:18;;;;;;;5.13;3.10;;;14.90;96.30;;;;;;5022593;28;21021;-58